Portada
METAR-TAF:

METAR-TAF

Aeropuertos :

Harrison, Arkansas, Estados Unidos

latitud: 36-15-42N, longitud: 093-09-17W, altitud: 416 m

Observación

El informe se hizo hace 28 minutos, a las 06:53 UTC
Viento calma
Temperatura 23°C
Humedad 100%
Presión 1016 hPa
Visibilidad: 16.1 km
Cielo despejado

METAR: KHRO 060653Z AUTO 00000KT 10SM CLR 23/23 A3000 RMK AO2 SLP140 T02330228

Hora: 02:21 (07:21 UTC)

Pronóstico

El informe se hizo hace 2 horas y 1 minutos, a las 05:20 UTC
Pronóstico válido del 06 a las 06 UTC al 07 a las 06 UTC
Viento 3 kt con dirección variable
Visibilidad: 10 km
Nubes dispersas a una altura de 25000 ft
Temporalmente
del 06 a las 10 UTC al 06 a las 13 UTC
Visibilidad: 8.0 km
neblina
A partir de las 06 a las 1400 UTC
Viento 8 kt del este-sureste
Visibilidad: 10 km
Nubes dispersas a una altura de 4000 ft
Nubes dispersas a una altura de 25000 ft

TAF: KHRO 060520Z 0606/0706 VRB03KT P6SM SCT250 TEMPO 0610/0613 5SM BR FM061400 12008KT P6SM SCT040 SCT250

Observaciones y pronósticos meteorológicos de más de 4000 aeropuertos (mensajes METAR y TAF).

Los puntos amarillos y rojos representan las estaciones disponibles.

Ponga el ratón en el punto deseado para ver el nombre de la estación.

Haga clic para ver las observaciones y los pronósticos meteorológicos.

Para cambiar el mapa : haga clic en los botones verdes con una cruz de color negro para hacer un zoom, en el botón verde con un guión para alejar o en las flechas verdes para mapas adyacentes.


METAR-TAF: